BISN17 CYTR-CYOD

Flight info

Callsign BISN17
Flight time N/A
Altitude 42000
Route YVV MUSIT PEPKA YDN YPA
Aircraft C17/H-V/N

Departure

Time 2026-05-04 02:25
Airport CFB Trenton (CYTR)

Arrival

Time N/A
Airport CFB Cold Lake (CYOD)
Time Latitude Longitude Altitude Speed Heading
2026-05-04 01:47 44.11390 -77.54289 295 ft 0 kts 258°
2026-05-04 02:04 44.11391 -77.54283 277 ft 2 kts 258°
2026-05-04 02:05 44.11395 -77.54261 291 ft 2 kts 250°
2026-05-04 02:05 44.11403 -77.54242 295 ft 2 kts 225°
2026-05-04 02:05 44.11417 -77.54229 294 ft 2 kts 204°
2026-05-04 02:05 44.11432 -77.54225 294 ft 2 kts 176°
2026-05-04 02:06 44.11434 -77.54225 294 ft 0 kts 174°
2026-05-04 02:16 44.11424 -77.54222 286 ft 4 kts 166°
2026-05-04 02:16 44.11377 -77.54205 286 ft 9 kts 165°
2026-05-04 02:16 44.11350 -77.54180 286 ft 4 kts 126°
2026-05-04 02:16 44.11350 -77.54125 286 ft 8 kts 63°
2026-05-04 02:17 44.11399 -77.54034 290 ft 17 kts 51°
2026-05-04 02:17 44.11489 -77.53883 289 ft 21 kts 51°
2026-05-04 02:17 44.11577 -77.53732 291 ft 19 kts 51°
2026-05-04 02:17 44.11653 -77.53601 289 ft 16 kts 50°
2026-05-04 02:18 44.11714 -77.53485 292 ft 13 kts 71°
2026-05-04 02:18 44.11699 -77.53385 290 ft 10 kts 119°
2026-05-04 02:18 44.11664 -77.53299 291 ft 11 kts 120°
2026-05-04 02:18 44.11618 -77.53192 288 ft 14 kts 120°
2026-05-04 02:19 44.11590 -77.53072 289 ft 11 kts 79°
2026-05-04 02:19 44.11624 -77.53001 293 ft 9 kts 51°
2026-05-04 02:19 44.11670 -77.52923 291 ft 12 kts 51°
2026-05-04 02:19 44.11726 -77.52827 293 ft 14 kts 51°
2026-05-04 02:20 44.11789 -77.52719 292 ft 16 kts 51°
2026-05-04 02:20 44.11863 -77.52593 296 ft 18 kts 50°
2026-05-04 02:20 44.11943 -77.52457 296 ft 19 kts 51°
2026-05-04 02:20 44.12031 -77.52308 294 ft 21 kts 49°
2026-05-04 02:21 44.12126 -77.52147 295 ft 22 kts 51°
2026-05-04 02:21 44.12229 -77.51975 297 ft 24 kts 50°
2026-05-04 02:21 44.12336 -77.51795 296 ft 25 kts 50°
2026-05-04 02:21 44.12400 -77.51686 295 ft 3 kts 48°
2026-05-04 02:22 44.12403 -77.51682 298 ft 1 kts 48°
2026-05-04 02:22 44.12405 -77.51679 298 ft 0 kts 48°
2026-05-04 02:23 44.12412 -77.51669 297 ft 3 kts 46°
2026-05-04 02:23 44.12417 -77.51663 296 ft 1 kts 42°
2026-05-04 02:23 44.12448 -77.51636 297 ft 11 kts 25°
2026-05-04 02:24 44.12539 -77.51631 297 ft 15 kts 336°
2026-05-04 02:24 44.12566 -77.51732 294 ft 9 kts 238°
2026-05-04 02:24 44.12537 -77.51767 298 ft 9 kts 228°
2026-05-04 02:24 44.12341 -77.52084 294 ft 80 kts 230°
2026-05-04 02:25 44.11829 -77.52947 288 ft 149 kts 230°
2026-05-04 02:25 44.11058 -77.54235 454 ft 200 kts 229°
2026-05-04 02:25 44.10028 -77.55841 860 ft 235 kts 227°
2026-05-04 02:25 44.08897 -77.57573 1626 ft 252 kts 230°
2026-05-04 02:26 44.07751 -77.59355 2383 ft 238 kts 232°
2026-05-04 02:26 44.06694 -77.61042 2961 ft 225 kts 232°
2026-05-04 02:26 44.05648 -77.62630 3254 ft 223 kts 232°
2026-05-04 02:26 44.04624 -77.64227 3586 ft 220 kts 234°